Aérodrome :
LOGIN :

S'inscrire | Disclaimer

   EN    FR    IT 

 










Légende :    VFR   VFR Marginal   IFR   IFR Intensif   IFR Très Intensif
Visi : 
Plafond : 
>= 8 km
>= 3000ft
5 à 8 km
1000 à 3000 ft
1500m à 5 km
500 à 1000 ft
800 à 1500m
200 à 500 ft
< 800m
< 200 ft
Symboles :   Orages  Brouillard  Fortes neiges  Fortes précipitations  Vent > 20 kt
SIGMETs :   Divers  Orages  Givrage  Turbulence  Onde Orograph.  Cendres Volcan.







- Altitude de l'aérodrome : 121 ft
- Code IATA : HUY
- Voir les cartes d'approche


EGNJ - Humberside

DERNIER METAR :
  • 280650Z 04014KT 5000 RA BKN004 OVC008 12/12 Q1001

METARs EXPIRÉS :
  • 280620Z 04016KT 5000 RA BKN004 OVC008 12/12 Q1001
  • 280550Z 04015KT 5000 RA OVC004 12/12 Q1001
  • 280520Z 04012KT 4000 RA OVC003 12/12 Q1001
  • 280450Z 05013KT 4000 RA OVC003 13/12 Q1001 REDZ
  • 280420Z AUTO 05012KT 3400 DZ OVC003/// 13/12 Q1002

TAF TAF EGNJ
Valide du 28 à 06h jusqu'au 28 à 15h UTC


280502Z 2806/2815 03012KT 3000 RADZ BR BKN002
PROB40
TEMPO 2806/2815 7000 -RADZ BKN008
TEMPO 2809/2815 03018G28KT
ATIS : +44 1652 682 020
Pas de NOTAMs connus pour ce terrain.
1 SIGMET publié pour la FIR London (EGTT) :
 
Orages noyés dans la masse
EGTT SIGMET 01 VALID 280600/280800 EGRR
EGTT LONDON FIR EMBD TS OBS WI N5255 E00110 - N5348 E00110 - N5349 E00356 - N5255 E00309 - N5255 E00110 TOP FL370 MOV NNW 15KT NC=



MET'MAP, la Météo Aéronautique d'un coup d'oeil ! - Copyright ORBIFLY Décembre 2007 - Disclaimer

ORBIFLY MET'MAP TEAM :

Programmation & Développement : Alexandra Zaïnal
Conception & Développement : Baudouin d'Aumeries
Co-Programmation & Développement : Marc-Olivier Méhu
Soutien technique & logistique : Manuel Goepfert

Contact : metmap@orbifly.com




SOURCES & CREDITS :

   NOAA